Time;durP1;ratioP1;P1;durP2;ratioP2;P2;SDS_P1;SDS_P2;PMS_P1;PMS_P2;Temp;Humidity;BMP_temperature;BMP_pressure;BME280_temperature;BME280_humidity;BME280_pressure;Samples;Min_cycle;Max_cycle;Signal;HPM_P1;HPM_P2
2023/07/13 00:01:35;;;;;;;11.10;10.00;;;;;;;18.45;85.45;100079.27;103916;277;39169;-74
2023/07/13 00:04:10;;;;;;;10.60;9.50;;;;;;;18.43;85.39;100076.24;103678;279;38876;-75
2023/07/13 00:06:44;;;;;;;11.00;9.90;;;;;;;18.40;85.47;100075.30;103850;277;38297;-71
2023/07/13 00:09:19;;;;;;;9.50;8.50;;;;;;;18.35;85.35;100074.91;103865;277;39703;-72
2023/07/13 00:11:55;;;;;;;10.00;7.90;;;;;;;18.31;85.26;100078.25;103657;279;39598;-73
2023/07/13 00:14:30;;;;;;;9.70;8.80;;;;;;;18.27;85.34;100076.05;103875;277;39445;-72
2023/07/13 00:17:05;;;;;;;9.70;8.70;;;;;;;18.27;85.75;100067.92;103782;266;38280;-72
2023/07/13 00:19:39;;;;;;;10.10;9.10;;;;;;;18.28;85.83;100063.63;103708;278;38514;-72
2023/07/13 00:22:13;;;;;;;10.20;9.00;;;;;;;18.27;85.67;100065.11;103888;277;38775;-73
2023/07/13 00:24:47;;;;;;;11.50;8.80;;;;;;;18.25;85.83;100069.48;103894;277;38923;-75
2023/07/13 00:27:21;;;;;;;12.10;8.50;;;;;;;18.24;85.86;100070.61;103790;278;39431;-73
2023/07/13 00:29:55;;;;;;;9.20;8.30;;;;;;;18.20;85.87;100069.69;103887;277;38440;-73
2023/07/13 00:32:30;;;;;;;8.90;8.00;;;;;;;18.15;85.69;100072.21;103844;277;38241;-73
2023/07/13 00:35:05;;;;;;;10.10;9.10;;;;;;;18.10;85.87;100072.55;103858;277;38543;-74
2023/07/13 00:37:39;;;;;;;10.40;9.20;;;;;;;18.08;86.03;100067.27;103826;278;39703;-72
2023/07/13 00:40:17;;;;;;;10.30;9.30;;;;;;;18.07;86.32;100065.02;103816;277;38891;-73
2023/07/13 00:42:51;;;;;;;11.80;10.60;;;;;;;18.11;86.66;100067.88;103867;277;38285;-72
2023/07/13 00:46:05;;;;;;;12.20;10.10;;;;;;;18.16;86.93;100070.87;103864;277;39401;-72
2023/07/13 00:48:40;;;;;;;14.10;11.30;;;;;;;18.19;87.02;100065.05;103870;277;38427;-72
2023/07/13 00:51:15;;;;;;;13.00;10.50;;;;;;;18.18;87.00;100060.89;103865;277;38225;-74
2023/07/13 00:53:49;;;;;;;14.10;11.20;;;;;;;18.16;87.11;100057.64;103835;277;38530;-75
2023/07/13 00:56:24;;;;;;;11.70;10.50;;;;;;;18.17;86.98;100061.29;103790;278;39685;-73
2023/07/13 00:58:58;;;;;;;13.60;11.40;;;;;;;18.14;87.12;100061.14;103845;277;38424;-71
2023/07/13 01:01:32;;;;;;;12.60;11.30;;;;;;;18.12;87.25;100061.30;103683;268;39412;-72
2023/07/13 01:04:08;;;;;;;10.90;9.80;;;;;;;18.12;87.39;100059.38;103677;278;39564;-72
2023/07/13 01:06:43;;;;;;;11.30;10.10;;;;;;;18.09;87.34;100061.38;103698;279;38329;-73
2023/07/13 01:09:19;;;;;;;11.60;10.20;;;;;;;18.07;87.34;100062.93;103842;277;38416;-72
2023/07/13 01:11:53;;;;;;;13.90;10.90;;;;;;;18.09;87.42;100060.66;103776;277;174919;-73
2023/07/13 01:14:28;;;;;;;11.50;10.30;;;;;;;18.08;87.49;100061.28;103855;277;39414;-72
2023/07/13 01:17:02;;;;;;;11.20;10.10;;;;;;;18.08;87.51;100061.61;103874;277;39599;-71
2023/07/13 01:19:39;;;;;;;10.80;9.80;;;;;;;18.07;87.73;100065.38;103856;277;38432;-72
2023/07/13 01:22:15;;;;;;;10.20;9.10;;;;;;;18.06;87.60;100064.39;103846;277;39390;-75
2023/07/13 01:24:50;;;;;;;11.00;9.70;;;;;;;18.04;87.51;100063.84;103720;277;40586;-73
2023/07/13 01:27:26;;;;;;;11.90;10.60;;;;;;;18.04;87.69;100061.38;103841;277;39241;-75
2023/07/13 01:30:03;;;;;;;12.80;11.40;;;;;;;18.04;87.84;100057.66;103828;277;39397;-73
2023/07/13 01:32:39;;;;;;;13.80;10.40;;;;;;;18.03;87.79;100061.38;103822;277;38699;-72
2023/07/13 01:35:13;;;;;;;11.90;10.20;;;;;;;18.01;87.88;100073.58;103823;277;38556;-71
2023/07/13 01:37:47;;;;;;;11.10;10.10;;;;;;;17.98;87.83;100079.26;103856;277;38260;-73
2023/07/13 01:40:24;;;;;;;12.00;10.50;;;;;;;17.96;87.83;100091.05;103873;277;38637;-71
2023/07/13 01:42:59;;;;;;;11.70;10.50;;;;;;;17.99;88.08;100097.59;103782;277;39856;-73
2023/07/13 01:45:32;;;;;;;13.10;11.80;;;;;;;18.01;88.26;100097.56;103643;279;38937;-75
2023/07/13 01:48:07;;;;;;;14.00;11.20;;;;;;;17.99;88.01;100089.20;103810;270;39679;-72
2023/07/13 01:50:41;;;;;;;12.80;10.70;;;;;;;18.00;88.29;100087.91;103712;279;40457;-72
2023/07/13 01:53:15;;;;;;;12.50;11.20;;;;;;;18.02;88.34;100086.41;103832;277;38469;-74
2023/07/13 01:55:49;;;;;;;12.80;11.50;;;;;;;18.00;88.27;100082.83;103795;277;39162;-74
2023/07/13 01:58:23;;;;;;;12.40;11.00;;;;;;;17.99;88.43;100090.98;103808;277;39648;-72
2023/07/13 02:00:58;;;;;;;14.20;11.60;;;;;;;17.98;88.52;100089.17;103823;278;39678;-72
2023/07/13 02:03:32;;;;;;;13.60;10.70;;;;;;;17.96;88.52;100080.28;103676;278;174885;-73
2023/07/13 02:06:06;;;;;;;14.10;11.00;;;;;;;17.97;88.43;100083.39;103661;278;38300;-72
2023/07/13 02:08:41;;;;;;;15.90;11.70;;;;;;;17.97;88.66;100087.08;103755;279;38543;-72
2023/07/13 02:11:16;;;;;;;11.80;10.60;;;;;;;17.96;88.45;100087.58;103817;278;38941;-72
2023/07/13 02:13:52;;;;;;;12.60;11.40;;;;;;;17.93;88.51;100093.58;103785;278;38464;-72
2023/07/13 02:16:26;;;;;;;12.50;11.20;;;;;;;17.91;88.58;100094.28;103799;277;38470;-73
2023/07/13 02:19:00;;;;;;;11.60;10.50;;;;;;;17.90;88.52;100093.32;103828;278;38913;-74
2023/07/13 02:21:34;;;;;;;12.40;10.90;;;;;;;17.90;88.58;100088.72;103683;279;38092;-73
2023/07/13 02:24:09;;;;;;;12.70;11.50;;;;;;;17.89;88.45;100086.50;103783;278;38279;-73
2023/07/13 02:26:43;;;;;;;12.80;11.50;;;;;;;17.87;88.68;100092.29;103851;278;38266;-72
2023/07/13 02:29:17;;;;;;;12.50;11.30;;;;;;;17.87;88.99;100099.31;103779;277;39419;-72
2023/07/13 02:31:51;;;;;;;11.80;10.40;;;;;;;17.85;88.76;100096.83;103715;278;174516;-72
2023/07/13 02:34:25;;;;;;;12.00;10.90;;;;;;;17.83;88.94;100098.02;103779;278;38659;-72
2023/07/13 02:36:59;;;;;;;11.60;10.50;;;;;;;17.82;88.83;100103.20;103829;278;39432;-75
2023/07/13 02:39:35;;;;;;;12.00;10.70;;;;;;;17.84;89.12;100106.64;103798;278;38363;-73
2023/07/13 02:42:11;;;;;;;12.50;11.30;;;;;;;17.84;89.07;100108.20;103791;278;38296;-73
2023/07/13 02:44:45;;;;;;;12.00;10.50;;;;;;;17.83;89.08;100110.01;103817;278;38587;-73
2023/07/13 02:47:19;;;;;;;11.20;10.10;;;;;;;17.84;89.33;100106.42;103763;278;38849;-71
2023/07/13 02:49:53;;;;;;;10.90;9.40;;;;;;;17.84;89.23;100102.89;103780;278;38275;-72
2023/07/13 02:52:27;;;;;;;11.20;9.80;;;;;;;17.86;89.48;100096.05;103869;278;38840;-72
2023/07/13 02:55:02;;;;;;;10.40;9.40;;;;;;;17.87;89.37;100095.30;103827;278;40071;-72
2023/07/13 02:57:36;;;;;;;11.20;10.00;;;;;;;17.86;89.39;100094.30;103892;278;38232;-72
2023/07/13 03:00:13;;;;;;;10.20;9.30;;;;;;;17.84;89.48;100094.95;103846;278;38720;-72
2023/07/13 03:02:47;;;;;;;10.30;9.00;;;;;;;17.83;89.47;100099.98;103235;278;896420;-72
2023/07/13 03:05:21;;;;;;;9.50;8.60;;;;;;;17.82;89.36;100094.73;103832;278;38813;-72
2023/07/13 03:07:55;;;;;;;10.10;8.60;;;;;;;17.80;89.30;100098.77;103828;278;38215;-72
2023/07/13 03:10:30;;;;;;;9.60;8.70;;;;;;;17.81;89.56;100099.05;103794;278;40035;-72
2023/07/13 03:13:04;;;;;;;10.20;8.90;;;;;;;17.80;89.50;100094.90;103794;278;38432;-71
2023/07/13 03:15:38;;;;;;;13.30;9.60;;;;;;;17.81;89.46;100092.68;103855;277;38232;-70
2023/07/13 03:18:12;;;;;;;9.90;8.20;;;;;;;17.81;89.54;100090.76;103891;277;38946;-73
2023/07/13 03:20:46;;;;;;;9.90;8.10;;;;;;;17.80;89.34;100091.21;103926;278;39824;-72
2023/07/13 03:23:21;;;;;;;7.80;7.10;;;;;;;17.77;89.16;100093.86;103625;279;40703;-74
2023/07/13 03:26:06;;;;;;;10.70;8.50;;;;;;;17.74;89.08;100094.03;103871;278;39016;-73
2023/07/13 03:28:41;;;;;;;10.90;8.90;;;;;;;17.73;89.35;100093.76;103924;277;38679;-73
2023/07/13 03:31:17;;;;;;;9.20;8.30;;;;;;;17.71;89.15;100087.20;103852;277;38405;-73
2023/07/13 03:33:53;;;;;;;8.50;7.50;;;;;;;17.70;89.32;100086.95;103884;278;39668;-73
2023/07/13 03:36:29;;;;;;;10.50;9.40;;;;;;;17.73;89.51;100084.98;103853;278;39109;-70
2023/07/13 03:39:08;;;;;;;11.20;9.00;;;;;;;17.77;89.82;100075.30;103846;278;38449;-72
2023/07/13 03:41:44;;;;;;;10.20;9.20;;;;;;;17.84;89.77;100072.58;103828;278;39424;-75
2023/07/13 03:44:19;;;;;;;11.70;9.30;;;;;;;17.98;90.10;100072.25;103814;278;39426;-74
2023/07/13 03:46:54;;;;;;;9.50;8.50;;;;;;;18.31;89.88;100071.00;103665;279;40214;-75
2023/07/13 03:49:28;;;;;;;9.80;8.40;;;;;;;18.78;89.62;100073.63;103774;279;39148;-74
2023/07/13 03:52:02;;;;;;;10.50;9.40;;;;;;;19.14;89.24;100074.18;103793;279;39605;-73
2023/07/13 03:54:36;;;;;;;10.40;9.30;;;;;;;19.59;89.12;100070.48;103785;279;38258;-73
2023/07/13 03:57:10;;;;;;;9.00;8.20;;;;;;;20.30;89.68;100070.50;103836;278;38613;-73
2023/07/13 03:59:45;;;;;;;10.70;8.70;;;;;;;21.14;87.38;100077.05;103628;278;171432;-72
2023/07/13 04:02:24;;;;;;;10.40;9.40;;;;;;;21.92;85.44;100074.63;103824;278;38607;-73
2023/07/13 04:04:58;;;;;;;9.20;8.30;;;;;;;22.77;82.98;100071.39;103800;278;39965;-72
2023/07/13 04:07:32;;;;;;;10.80;8.60;;;;;;;23.45;78.23;100071.23;103753;279;38392;-72
2023/07/13 04:10:10;;;;;;;10.20;9.10;;;;;;;24.02;75.40;100068.78;103773;278;39567;-73
2023/07/13 04:12:44;;;;;;;9.40;8.40;;;;;;;24.65;73.40;100075.55;103813;278;39098;-73
2023/07/13 04:15:18;;;;;;;10.00;9.00;;;;;;;25.21;70.04;100082.84;103797;279;40141;-72
2023/07/13 04:17:53;;;;;;;9.40;8.50;;;;;;;25.54;68.16;100086.52;103829;278;38800;-73
2023/07/13 04:20:27;;;;;;;10.70;9.10;;;;;;;26.00;66.67;100095.52;103793;278;38373;-74
2023/07/13 04:23:02;;;;;;;10.30;9.30;;;;;;;26.40;64.00;100099.44;103811;278;39931;-73
2023/07/13 04:25:36;;;;;;;10.40;9.40;;;;;;;26.40;63.60;100104.34;103797;278;38381;-74
2023/07/13 04:28:13;;;;;;;11.70;10.60;;;;;;;26.11;62.84;100112.08;103755;278;38235;-73
2023/07/13 04:30:47;;;;;;;12.90;11.40;;;;;;;25.67;63.17;100124.92;103798;278;38884;-72
2023/07/13 04:33:23;;;;;;;12.40;11.30;;;;;;;25.26;63.88;100126.70;103802;278;38291;-74
2023/07/13 04:35:59;;;;;;;14.10;11.90;;;;;;;24.91;64.45;100118.21;103797;279;38359;-74
2023/07/13 04:38:34;;;;;;;13.90;12.30;;;;;;;24.65;64.70;100121.20;103779;278;38403;-75
2023/07/13 04:41:09;;;;;;;14.70;13.00;;;;;;;24.40;65.29;100117.66;103772;279;38535;-72
2023/07/13 04:43:44;;;;;;;13.70;12.50;;;;;;;24.12;65.88;100120.73;103795;278;38613;-73
2023/07/13 04:46:19;;;;;;;13.60;12.20;;;;;;;23.84;66.75;100121.89;103201;277;890630;-73
2023/07/13 04:48:55;;;;;;;14.30;12.80;;;;;;;23.57;67.17;100132.52;103915;277;38419;-72
2023/07/13 04:51:30;;;;;;;14.30;12.90;;;;;;;23.30;68.10;100129.55;103881;277;39374;-73
2023/07/13 04:54:07;;;;;;;13.30;12.10;;;;;;;23.03;69.09;100126.23;103848;277;39012;-72
2023/07/13 04:56:43;;;;;;;13.40;12.00;;;;;;;22.78;69.67;100127.16;103844;277;38439;-72
2023/07/13 04:59:17;;;;;;;13.40;12.10;;;;;;;22.60;70.73;100125.80;103853;277;39184;-73
2023/07/13 05:01:51;;;;;;;15.30;12.40;;;;;;;22.45;71.07;100120.58;103821;278;40009;-71
2023/07/13 05:04:26;;;;;;;13.10;11.70;;;;;;;22.34;71.39;100118.55;103844;278;39408;-73
2023/07/13 05:06:59;;;;;;;15.10;13.50;;;;;;;22.23;71.93;100127.07;103845;277;38258;-72
2023/07/13 05:09:37;;;;;;;14.20;12.80;;;;;;;22.14;72.37;100135.34;103848;277;39085;-72
2023/07/13 05:12:12;;;;;;;14.10;12.50;;;;;;;22.08;72.99;100143.81;103867;277;38649;-73
2023/07/13 05:14:46;;;;;;;13.60;12.30;;;;;;;21.99;73.50;100145.94;103853;277;38286;-72
2023/07/13 05:17:20;;;;;;;13.70;12.00;;;;;;;21.93;74.39;100151.23;103444;267;554335;-73
2023/07/13 05:19:55;;;;;;;12.20;11.00;;;;;;;21.90;74.93;100154.34;103843;277;38858;-73
2023/07/13 05:22:30;;;;;;;12.20;10.80;;;;;;;21.86;75.51;100158.02;103886;277;38410;-73
2023/07/13 05:25:05;;;;;;;11.00;9.90;;;;;;;21.89;76.01;100158.72;103853;277;39440;-73
2023/07/13 05:27:39;;;;;;;12.20;11.00;;;;;;;21.95;76.28;100161.52;103882;277;38574;-73
2023/07/13 05:30:15;;;;;;;13.80;11.60;;;;;;;22.02;76.30;100167.09;103842;277;39416;-71
2023/07/13 05:32:49;;;;;;;14.40;12.20;;;;;;;22.09;76.47;100168.91;103813;277;174626;-71
2023/07/13 05:35:25;;;;;;;13.00;11.70;;;;;;;22.17;76.49;100175.94;103863;277;38225;-72
2023/07/13 05:37:59;;;;;;;12.50;11.20;;;;;;;22.26;76.69;100186.11;103835;277;39979;-73
2023/07/13 05:40:33;;;;;;;12.90;10.80;;;;;;;22.33;76.82;100190.48;103898;277;38770;-74
2023/07/13 05:43:08;;;;;;;12.10;10.90;;;;;;;22.46;76.82;100191.84;103788;277;38737;-75
2023/07/13 05:45:42;;;;;;;16.50;13.80;;;;;;;22.55;76.24;100186.73;103846;278;38743;-75
2023/07/13 05:48:16;;;;;;;16.90;15.30;;;;;;;22.57;75.90;100189.16;103903;278;39437;-74
2023/07/13 05:50:52;;;;;;;16.50;14.20;;;;;;;22.68;76.35;100190.52;103839;277;38242;-73
2023/07/13 05:53:26;;;;;;;17.30;15.60;;;;;;;22.75;76.21;100179.73;103837;278;38503;-73
2023/07/13 05:56:01;;;;;;;18.00;15.10;;;;;;;22.77;76.21;100177.36;103767;278;39572;-74
2023/07/13 05:58:36;;;;;;;18.50;14.50;;;;;;;22.82;75.89;100174.66;103802;278;39371;-72
2023/07/13 06:01:13;;;;;;;20.60;15.60;;;;;;;22.88;75.72;100164.27;103802;278;38251;-72
2023/07/13 06:03:47;;;;;;;18.40;14.20;;;;;;;22.99;75.80;100163.69;103760;278;39567;-72
2023/07/13 06:06:22;;;;;;;21.80;15.70;;;;;;;23.12;75.52;100165.27;103720;266;187852;-74
2023/07/13 06:08:56;;;;;;;19.00;15.90;;;;;;;23.22;75.17;100169.65;103817;278;38772;-72
2023/07/13 06:11:31;;;;;;;21.40;15.10;;;;;;;23.31;75.39;100171.86;103778;278;39918;-73
2023/07/13 06:14:05;;;;;;;21.00;14.70;;;;;;;23.45;75.34;100167.98;103789;278;38374;-73
2023/07/13 06:16:38;;;;;;;19.10;14.90;;;;;;;23.85;76.09;100163.65;103785;277;38370;-75
2023/07/13 06:19:13;;;;;;;18.30;14.80;;;;;;;24.20;74.33;100164.34;103787;278;38997;-77
2023/07/13 06:21:48;;;;;;;19.30;15.00;;;;;;;24.48;73.69;100154.64;103834;278;40592;-73
2023/07/13 06:24:31;;;;;;;19.10;14.60;;;;;;;25.07;73.38;100154.66;103797;278;38406;-74
2023/07/13 06:27:07;;;;;;;18.10;14.40;;;;;;;25.71;71.55;100154.89;103861;266;38610;-73
2023/07/13 06:29:44;;;;;;;18.50;13.80;;;;;;;26.38;70.78;100163.92;103866;278;38356;-73
2023/07/13 06:32:19;;;;;;;18.20;13.60;;;;;;;27.52;68.37;100162.23;103841;278;38513;-72
2023/07/13 06:34:53;;;;;;;20.50;13.70;;;;;;;28.74;63.54;100164.20;103827;278;38536;-72
2023/07/13 06:37:28;;;;;;;19.70;13.70;;;;;;;29.56;59.84;100161.05;103858;278;38853;-73
2023/07/13 06:40:02;;;;;;;16.60;12.10;;;;;;;30.30;56.15;100156.02;103658;279;39010;-72
2023/07/13 06:42:38;;;;;;;14.30;11.50;;;;;;;31.07;53.68;100150.67;103808;278;38586;-76
2023/07/13 06:45:13;;;;;;;15.10;11.10;;;;;;;31.79;51.29;100155.66;103763;278;38946;-78
2023/07/13 06:47:48;;;;;;;13.00;10.60;;;;;;;32.36;49.13;100153.58;103818;278;38291;-74
2023/07/13 06:50:22;;;;;;;13.00;10.70;;;;;;;32.96;47.20;100148.36;103826;278;38760;-74
2023/07/13 06:52:56;;;;;;;16.20;9.60;;;;;;;33.38;44.54;100146.80;103879;278;39926;-74
2023/07/13 06:55:30;;;;;;;8.40;7.50;;;;;;;33.74;43.73;100140.98;103849;278;38255;-76
2023/07/13 06:58:04;;;;;;;11.80;8.50;;;;;;;34.41;41.96;100137.73;103893;278;38354;-76
2023/07/13 07:00:40;;;;;;;14.10;8.70;;;;;;;34.53;39.41;100135.90;103858;278;39420;-76
2023/07/13 07:03:14;;;;;;;8.50;6.70;;;;;;;34.54;38.73;100138.70;103894;278;38289;-73
2023/07/13 07:05:51;;;;;;;7.10;6.40;;;;;;;35.11;37.73;100135.17;103875;278;38306;-77
2023/07/13 07:08:26;;;;;;;6.20;5.50;;;;;;;35.69;36.52;100137.04;103788;278;38758;-77
2023/07/13 07:11:02;;;;;;;6.70;5.70;;;;;;;36.23;35.17;100139.25;103721;278;187214;-76
2023/07/13 07:13:37;;;;;;;8.60;6.20;;;;;;;36.64;34.03;100137.39;103829;277;38330;-75
2023/07/13 07:16:10;;;;;;;7.20;6.30;;;;;;;36.80;32.83;100137.61;103910;278;38653;-74
2023/07/13 07:18:45;;;;;;;6.50;5.50;;;;;;;36.91;32.74;100136.32;103840;278;38294;-71
2023/07/13 07:21:19;;;;;;;6.40;5.80;;;;;;;37.35;31.98;100135.92;103921;278;38779;-73
2023/07/13 07:23:54;;;;;;;5.70;5.20;;;;;;;37.62;31.01;100136.36;103863;277;38395;-75
2023/07/13 07:26:30;;;;;;;8.00;6.10;;;;;;;37.74;30.80;100131.72;103899;266;39669;-74
2023/07/13 07:29:04;;;;;;;7.90;5.90;;;;;;;38.00;30.70;100130.23;103652;278;38443;-75
2023/07/13 07:31:41;;;;;;;5.90;5.30;;;;;;;38.30;31.09;100134.09;103861;278;38734;-71
2023/07/13 07:34:16;;;;;;;6.40;5.60;;;;;;;38.72;30.52;100133.72;103874;278;38427;-72
2023/07/13 07:36:50;;;;;;;6.00;4.70;;;;;;;38.80;29.53;100132.94;103689;278;38731;-73
2023/07/13 07:39:25;;;;;;;5.10;4.30;;;;;;;38.89;28.13;100138.77;103853;282;39412;-73
2023/07/13 07:42:00;;;;;;;4.20;3.90;;;;;;;38.88;27.46;100142.46;103938;278;38455;-76
2023/07/13 07:44:34;;;;;;;4.60;4.20;;;;;;;38.92;27.36;100141.38;103855;278;39409;-74
2023/07/13 07:47:10;;;;;;;4.50;4.10;;;;;;;39.30;27.47;100141.07;103855;278;39394;-71
2023/07/13 07:49:44;;;;;;;3.90;3.50;;;;;;;39.76;27.14;100139.55;103849;277;38251;-74
2023/07/13 07:52:18;;;;;;;3.60;3.30;;;;;;;39.86;25.58;100135.40;103849;278;38461;-75
2023/07/13 07:54:53;;;;;;;5.20;3.80;;;;;;;39.96;25.95;100134.13;103868;278;38289;-74
2023/07/13 07:57:27;;;;;;;4.00;3.60;;;;;;;40.18;25.84;100136.91;103828;277;39516;-75
2023/07/13 08:00:04;;;;;;;5.70;3.90;;;;;;;40.43;25.23;100135.32;103825;277;39723;-76
2023/07/13 08:02:41;;;;;;;4.30;3.90;;;;;;;40.64;24.46;100134.92;103905;277;38266;-72
2023/07/13 08:05:17;;;;;;;4.90;4.40;;;;;;;40.37;24.77;100134.30;103676;279;38717;-72
2023/07/13 08:07:52;;;;;;;4.90;4.20;;;;;;;40.28;25.02;100137.98;103855;278;38440;-74
2023/07/13 08:10:26;;;;;;;4.70;4.00;;;;;;;40.46;25.00;100141.05;103830;277;38247;-77
2023/07/13 08:13:01;;;;;;;4.90;4.30;;;;;;;40.80;24.53;100141.02;103883;278;38247;-73
2023/07/13 08:15:34;;;;;;;5.10;4.10;;;;;;;40.95;24.27;100142.74;103864;278;38248;-72
2023/07/13 08:18:09;;;;;;;4.10;3.70;;;;;;;41.11;23.66;100138.29;103805;278;38236;-72
2023/07/13 08:20:43;;;;;;;4.20;3.80;;;;;;;41.28;23.02;100135.26;103170;277;881135;-73
2023/07/13 08:23:17;;;;;;;6.50;3.80;;;;;;;41.10;23.01;100140.27;103887;277;38478;-76
2023/07/13 08:25:57;;;;;;;4.10;3.50;;;;;;;41.14;23.75;100143.47;103759;277;38794;-75
2023/07/13 08:28:36;;;;;;;3.80;3.40;;;;;;;41.39;23.27;100136.77;103849;277;38319;-76
2023/07/13 08:31:10;;;;;;;4.30;3.30;;;;;;;41.52;22.63;100142.43;103801;279;39614;-76
2023/07/13 08:33:45;;;;;;;3.80;3.50;;;;;;;41.38;21.81;100142.18;103859;277;38767;-76
2023/07/13 08:36:19;;;;;;;3.30;3.00;;;;;;;41.25;22.43;100146.77;103849;277;38349;-74
2023/07/13 08:38:53;;;;;;;5.60;3.80;;;;;;;41.14;22.51;100145.67;103786;277;38849;-74
2023/07/13 08:41:27;;;;;;;3.90;3.20;;;;;;;40.98;22.14;100148.64;103859;277;40681;-76
2023/07/13 08:44:03;;;;;;;3.80;3.50;;;;;;;40.73;22.34;100148.70;103878;277;38282;-76
2023/07/13 08:46:40;;;;;;;4.90;3.60;;;;;;;40.25;22.57;100153.23;103841;277;39383;-74
2023/07/13 08:49:16;;;;;;;3.60;3.30;;;;;;;39.34;23.27;100160.21;103846;277;39944;-72
2023/07/13 08:51:55;;;;;;;3.60;3.30;;;;;;;38.56;23.87;100165.06;103916;277;38503;-73
2023/07/13 08:54:33;;;;;;;4.20;3.70;;;;;;;38.01;24.46;100164.62;103854;277;38255;-73
2023/07/13 08:57:11;;;;;;;;;;;;;;;37.29;25.48;100167.49;103922;277;38283;-73
2023/07/13 08:59:44;;;;;;;;;;;;;;;36.46;26.64;100172.79;103733;278;40322;-74
2023/07/13 09:02:28;;;;;;;4.20;3.90;;;;;;;36.03;26.99;100171.24;103870;277;38395;-73
2023/07/13 09:05:05;;;;;;;4.40;3.90;;;;;;;35.81;27.62;100171.68;103689;280;40217;-71
2023/07/13 09:07:52;;;;;;;5.90;4.30;;;;;;;35.72;27.67;100171.42;103893;277;38270;-71
2023/07/13 09:10:30;;;;;;;6.90;4.20;;;;;;;35.73;28.58;100173.04;103844;277;38636;-72
2023/07/13 09:13:17;;;;;;;5.70;4.10;;;;;;;35.83;28.44;100171.75;103899;277;38232;-72
2023/07/13 09:15:52;;;;;;;5.10;4.40;;;;;;;35.68;28.43;100175.98;103871;277;38473;-73
2023/07/13 09:18:32;;;;;;;4.40;3.70;;;;;;;35.57;28.77;100185.08;103840;277;39466;-73
2023/07/13 09:21:09;;;;;;;7.40;3.90;;;;;;;35.14;28.79;100189.98;103876;277;38382;-73
2023/07/13 09:23:44;;;;;;;5.60;3.90;;;;;;;34.32;29.18;100192.39;103915;277;39444;-74
2023/07/13 09:26:22;;;;;;;8.30;3.60;;;;;;;33.26;30.17;100181.91;103933;277;38245;-73
2023/07/13 09:29:00;;;;;;;5.10;3.10;;;;;;;32.40;31.51;100184.49;103851;277;39455;-75
2023/07/13 09:31:38;;;;;;;8.30;3.20;;;;;;;31.63;32.33;100189.91;103897;277;39901;-73
2023/07/13 09:34:15;;;;;;;10.60;2.80;;;;;;;31.00;33.27;100189.58;103869;277;38276;-71
2023/07/13 09:36:51;;;;;;;9.50;2.10;;;;;;;30.58;33.43;100191.54;103874;266;38886;-71
2023/07/13 09:39:29;;;;;;;3.80;1.90;;;;;;;30.23;34.07;100187.38;103889;278;39378;-71
2023/07/13 09:42:08;;;;;;;3.20;1.90;;;;;;;29.93;34.62;100179.36;103895;277;38721;-74
2023/07/13 09:44:56;;;;;;;9.80;2.50;;;;;;;29.55;35.26;100165.04;103855;277;38959;-73
2023/07/13 09:47:32;;;;;;;12.30;3.10;;;;;;;29.19;36.09;100158.32;103918;277;38972;-74
2023/07/13 09:50:16;;;;;;;7.90;2.60;;;;;;;28.98;36.83;100154.71;103890;277;39435;-73
2023/07/13 09:52:58;;;;;;;6.20;2.90;;;;;;;28.88;37.38;100156.46;103854;278;38451;-71
2023/07/13 09:55:35;;;;;;;11.60;2.80;;;;;;;29.04;37.49;100152.38;103764;278;187518;-72
2023/07/13 09:58:15;;;;;;;7.70;2.60;;;;;;;29.20;37.27;100153.98;103816;278;38841;-74
2023/07/13 10:01:00;;;;;;;6.60;2.80;;;;;;;29.29;37.47;100152.95;103832;278;39991;-73
2023/07/13 10:03:37;;;;;;;5.90;3.50;;;;;;;29.44;37.81;100151.17;103830;278;38300;-74
2023/07/13 10:06:18;;;;;;;9.70;2.90;;;;;;;29.55;36.70;100148.58;103834;278;38932;-73
2023/07/13 10:08:52;;;;;;;12.50;4.00;;;;;;;29.34;36.83;100148.92;103845;278;37449;-72
2023/07/13 10:11:30;;;;;;;10.20;3.30;;;;;;;29.16;37.13;100142.28;103834;278;38963;-74
2023/07/13 10:14:11;;;;;;;7.60;3.00;;;;;;;28.87;36.91;100142.00;103796;278;39337;-72
2023/07/13 10:16:46;;;;;;;4.10;2.90;;;;;;;28.32;37.15;100147.92;103786;278;39411;-71
2023/07/13 10:19:25;;;;;;;9.90;3.20;;;;;;;27.80;37.90;100157.65;103712;278;39402;-73
2023/07/13 10:22:01;;;;;;;16.90;3.60;;;;;;;27.46;38.93;100159.67;103823;278;39451;-72
2023/07/13 10:24:37;;;;;;;8.10;3.00;;;;;;;27.12;39.87;100157.96;103622;278;38462;-72
2023/07/13 10:27:16;;;;;;;4.30;3.00;;;;;;;26.77;40.67;100160.42;103867;278;39400;-73
2023/07/13 10:29:54;;;;;;;6.40;3.30;;;;;;;26.40;41.88;100168.87;103807;278;38390;-71
2023/07/13 10:32:29;;;;;;;3.10;2.70;;;;;;;25.99;42.40;100171.06;103695;278;39420;-77
2023/07/13 10:35:03;;;;;;;3.50;2.70;;;;;;;25.70;43.48;100174.83;103798;278;38260;-79
2023/07/13 10:37:42;;;;;;;6.10;2.80;;;;;;;25.45;44.50;100185.27;103736;278;38328;-78
2023/07/13 10:40:17;;;;;;;;;;;;;;;25.14;46.17;100201.55;103815;278;38446;-72
2023/07/13 10:42:53;;;;;;;8.70;3.60;;;;;;;24.68;48.31;100207.70;103786;278;39468;-73
2023/07/13 10:45:32;;;;;;;7.50;3.60;;;;;;;24.35;50.14;100219.05;103836;278;39430;-73
2023/07/13 10:48:07;;;;;;;8.20;3.80;;;;;;;24.02;52.63;100233.08;103807;277;38330;-71
2023/07/13 10:50:44;;;;;;;5.10;3.60;;;;;;;23.74;54.25;100239.04;103653;278;39866;-69
2023/07/13 10:53:29;;;;;;;7.20;3.60;;;;;;;23.51;56.38;100240.98;103874;278;38240;-74
2023/07/13 10:56:25;;;;;;;5.50;3.90;;;;;;;23.24;57.38;100228.38;103790;278;38549;-74
2023/07/13 10:59:15;;;;;;;5.50;3.40;;;;;;;22.95;58.58;100223.81;103846;278;38254;-74
2023/07/13 11:01:58;;;;;;;5.20;3.50;;;;;;;22.73;59.24;100221.30;103759;278;38678;-72
2023/07/13 11:04:47;;;;;;;3.50;3.20;;;;;;;22.53;60.13;100217.25;103744;279;38707;-75
2023/07/13 11:07:27;;;;;;;6.10;3.70;;;;;;;22.34;61.11;100217.77;103833;278;38391;-72
2023/07/13 11:10:04;;;;;;;6.10;4.00;;;;;;;22.17;62.50;100232.74;103802;278;40007;-72
2023/07/13 11:13:06;;;;;;;5.50;3.70;;;;;;;22.04;63.86;100246.13;103849;278;38242;-73
2023/07/13 11:15:51;;;;;;;7.50;4.30;;;;;;;21.84;64.75;100242.42;103542;278;38754;-74
2023/07/13 11:18:28;;;;;;;6.60;4.10;;;;;;;21.74;65.57;100232.64;103830;278;38261;-74
2023/07/13 11:21:20;;;;;;;7.00;4.40;;;;;;;21.72;65.57;100226.27;103699;279;38519;-74
2023/07/13 11:24:05;;;;;;;6.40;3.90;;;;;;;21.61;66.21;100236.26;103825;278;38319;-75
2023/07/13 11:26:53;;;;;;;6.10;4.00;;;;;;;21.48;66.32;100248.68;103839;278;39546;-75
2023/07/13 11:29:38;;;;;;;6.90;4.40;;;;;;;21.37;67.55;100265.11;103714;278;38734;-70
2023/07/13 11:32:31;;;;;;;7.70;4.20;;;;;;;21.29;68.56;100274.67;103867;278;38268;-73
2023/07/13 11:35:06;;;;;;;6.90;4.30;;;;;;;21.25;68.95;100269.23;103838;266;39645;-73
2023/07/13 11:37:42;;;;;;;7.20;4.00;;;;;;;21.20;68.55;100272.22;103914;278;38545;-74
2023/07/13 11:40:25;;;;;;;6.20;3.90;;;;;;;21.15;69.03;100276.48;103917;278;38334;-73
2023/07/13 11:43:06;;;;;;;8.70;4.40;;;;;;;21.12;69.63;100268.41;103841;278;39446;-74
2023/07/13 11:45:45;;;;;;;8.00;4.10;;;;;;;21.08;70.07;100268.02;103803;278;38358;-74
2023/07/13 11:48:31;;;;;;;9.30;4.60;;;;;;;20.99;70.36;100267.55;103805;278;38680;-74
2023/07/13 11:51:06;;;;;;;9.50;4.20;;;;;;;20.94;71.16;100271.37;103693;278;39548;-74
2023/07/13 11:53:45;;;;;;;5.80;4.10;;;;;;;20.94;71.88;100272.75;103886;277;38216;-74
2023/07/13 11:56:20;;;;;;;8.20;4.60;;;;;;;20.95;72.28;100269.25;103851;278;38370;-74
2023/07/13 11:58:56;;;;;;;7.10;5.60;;;;;;;21.02;72.78;100269.45;103856;277;38480;-74
2023/07/13 12:01:33;;;;;;;7.60;5.00;;;;;;;21.06;72.76;100264.64;103869;277;38257;-74